createdAt,value
2023-05-13T00:01:57.171Z,10.00
2023-05-13T00:04:58.499Z,9.99
2023-05-13T00:08:06.986Z,10.00
2023-05-13T00:11:08.407Z,9.99
2023-05-13T00:14:10.764Z,9.92
2023-05-13T00:17:12.271Z,9.92
2023-05-13T00:20:13.637Z,9.93
2023-05-13T00:23:15.038Z,9.93
2023-05-13T00:26:16.472Z,9.93
2023-05-13T00:29:17.827Z,9.90
2023-05-13T00:32:19.270Z,9.92
2023-05-13T00:35:20.658Z,9.83
2023-05-13T00:38:22.150Z,9.84
2023-05-13T00:41:23.661Z,9.82
2023-05-13T00:44:27.310Z,9.78
2023-05-13T00:47:28.751Z,9.76
2023-05-13T00:50:30.158Z,9.74
2023-05-13T00:53:33.464Z,9.72
2023-05-13T00:56:37.210Z,9.69
2023-05-13T00:59:38.561Z,9.67
2023-05-13T01:02:57.362Z,9.63
2023-05-13T01:06:11.689Z,9.64
2023-05-13T01:09:47.122Z,9.60
2023-05-13T01:12:54.010Z,9.53
2023-05-13T01:16:03.873Z,9.63
2023-05-13T01:19:22.032Z,9.61
2023-05-13T01:22:23.418Z,9.55
2023-05-13T01:25:25.706Z,9.58
2023-05-13T01:28:27.191Z,9.54
2023-05-13T01:31:29.386Z,9.51
2023-05-13T01:34:32.067Z,9.50
2023-05-13T01:37:33.499Z,9.46
2023-05-13T01:40:35.629Z,9.43
2023-05-13T01:43:37.259Z,9.42
2023-05-13T01:46:39.310Z,9.43
2023-05-13T01:49:40.718Z,9.41
2023-05-13T01:52:42.179Z,9.39
2023-05-13T01:55:43.552Z,9.41
2023-05-13T01:58:44.920Z,9.44
2023-05-13T02:01:46.347Z,9.43
2023-05-13T02:04:47.765Z,9.45
2023-05-13T02:07:49.152Z,9.42
2023-05-13T02:10:57.497Z,9.31
2023-05-13T02:13:58.877Z,9.32
2023-05-13T02:17:00.258Z,9.30
2023-05-13T02:20:01.724Z,9.31
2023-05-13T02:23:03.092Z,9.30
2023-05-13T02:26:04.555Z,9.23
2023-05-13T02:29:06.012Z,9.26
2023-05-13T02:32:08.290Z,9.29
2023-05-13T02:35:10.747Z,9.32
2023-05-13T02:38:12.508Z,9.30
2023-05-13T02:41:14.163Z,9.33
2023-05-13T02:44:15.512Z,9.30
2023-05-13T02:47:17.082Z,9.28
2023-05-13T02:50:19.124Z,9.30
2023-05-13T02:53:22.717Z,9.24
2023-05-13T02:56:24.212Z,9.24
2023-05-13T02:59:26.094Z,9.25
2023-05-13T03:02:28.230Z,9.26
2023-05-13T03:05:29.984Z,9.26
2023-05-13T03:08:31.623Z,9.25
2023-05-13T03:11:33.004Z,9.24
2023-05-13T03:14:36.706Z,9.23
2023-05-13T03:17:38.081Z,9.25
2023-05-13T03:20:39.515Z,9.24
2023-05-13T03:23:40.990Z,9.23
2023-05-13T03:26:42.371Z,9.21
2023-05-13T03:29:43.789Z,9.19
2023-05-13T03:32:45.155Z,9.16
2023-05-13T03:35:48.426Z,9.12
2023-05-13T03:38:49.866Z,9.08
2023-05-13T03:41:51.302Z,9.09
2023-05-13T03:44:52.679Z,9.09
2023-05-13T03:47:54.135Z,9.08
2023-05-13T03:50:55.578Z,9.11
2023-05-13T03:53:56.956Z,9.09
2023-05-13T03:56:58.347Z,9.09
2023-05-13T03:59:59.719Z,9.08
2023-05-13T04:03:01.131Z,9.10
2023-05-13T04:06:02.505Z,9.10
2023-05-13T04:09:04.677Z,9.11
2023-05-13T04:12:06.343Z,9.01
2023-05-13T04:15:08.248Z,9.06
2023-05-13T04:18:09.892Z,9.00
2023-05-13T04:21:11.482Z,8.99
2023-05-13T04:24:12.863Z,8.98
2023-05-13T04:27:14.217Z,8.99
2023-05-13T04:30:15.961Z,9.01
2023-05-13T04:33:17.334Z,9.02
2023-05-13T04:36:18.882Z,9.07
2023-05-13T04:39:20.220Z,9.08
2023-05-13T04:42:21.631Z,9.07
2023-05-13T04:45:23.807Z,9.08
2023-05-13T04:48:27.889Z,9.14
2023-05-13T04:51:29.768Z,9.12
2023-05-13T04:54:31.449Z,9.16
2023-05-13T04:57:32.890Z,9.18
2023-05-13T05:00:34.283Z,9.23
2023-05-13T05:03:35.699Z,9.24
2023-05-13T05:06:37.229Z,9.29
2023-05-13T05:09:38.552Z,9.28
2023-05-13T05:12:39.951Z,9.33
2023-05-13T05:15:41.800Z,9.36
2023-05-13T05:18:43.601Z,9.43
2023-05-13T05:21:45.232Z,9.43
2023-05-13T05:24:48.185Z,9.46
2023-05-13T05:27:49.593Z,9.48
2023-05-13T05:30:50.932Z,9.53
2023-05-13T05:33:52.550Z,9.57
2023-05-13T05:36:54.938Z,9.69
2023-05-13T05:39:56.312Z,9.73
2023-05-13T05:42:57.648Z,9.66
2023-05-13T05:45:59.015Z,9.80
2023-05-13T05:49:02.457Z,9.83
2023-05-13T05:52:03.926Z,10.08
2023-05-13T05:55:07.122Z,10.20
2023-05-13T05:58:09.787Z,10.22
2023-05-13T06:01:11.214Z,10.26
2023-05-13T06:04:12.673Z,10.47
2023-05-13T06:07:14.113Z,10.52
2023-05-13T06:10:15.593Z,10.70
2023-05-13T06:13:17.209Z,10.73
2023-05-13T06:16:18.652Z,10.79
2023-05-13T06:19:20.257Z,10.79
2023-05-13T06:22:21.643Z,10.95
2023-05-13T06:25:23.011Z,11.12
2023-05-13T06:28:24.424Z,11.23
2023-05-13T06:31:26.202Z,11.31
2023-05-13T06:34:27.588Z,11.55
2023-05-13T06:37:29.029Z,11.66
2023-05-13T06:40:30.686Z,11.65
2023-05-13T06:43:32.039Z,11.91
2023-05-13T06:46:34.019Z,11.98
2023-05-13T06:49:35.639Z,11.98
2023-05-13T06:52:36.973Z,11.99
2023-05-13T06:55:41.511Z,12.19
2023-05-13T06:58:43.101Z,12.12
2023-05-13T07:01:44.593Z,12.14
2023-05-13T07:04:45.928Z,12.10
2023-05-13T07:07:47.644Z,12.06
2023-05-13T07:10:49.125Z,12.05
2023-05-13T07:13:50.538Z,12.01
2023-05-13T07:16:52.014Z,12.01
2023-05-13T07:19:53.471Z,12.06
2023-05-13T07:22:54.822Z,12.02
2023-05-13T07:25:56.374Z,12.11
2023-05-13T07:28:57.904Z,12.11
2023-05-13T07:32:04.041Z,12.17
2023-05-13T07:35:06.291Z,12.30
2023-05-13T07:38:10.974Z,12.33
2023-05-13T07:41:12.446Z,12.34
2023-05-13T07:44:14.353Z,12.43
2023-05-13T07:47:15.834Z,12.39
2023-05-13T07:50:17.245Z,12.51
2023-05-13T07:53:19.741Z,12.55
2023-05-13T07:56:21.762Z,12.62
2023-05-13T07:59:23.156Z,12.60
2023-05-13T08:02:24.615Z,12.65
2023-05-13T08:05:26.039Z,12.70
2023-05-13T08:08:27.479Z,12.69
2023-05-13T08:11:28.998Z,12.75
2023-05-13T08:14:30.432Z,12.93
2023-05-13T08:17:31.954Z,12.91
2023-05-13T08:20:33.543Z,12.90
2023-05-13T08:23:44.972Z,12.84
2023-05-13T08:26:47.202Z,12.97
2023-05-13T08:29:48.545Z,12.82
2023-05-13T08:32:50.009Z,12.95
2023-05-13T08:35:51.427Z,12.92
2023-05-13T08:38:53.043Z,12.98
2023-05-13T08:41:56.825Z,13.10
2023-05-13T08:44:58.320Z,13.13
2023-05-13T08:48:03.021Z,13.28
2023-05-13T08:51:04.749Z,13.36
2023-05-13T08:54:09.246Z,13.23
2023-05-13T08:57:10.671Z,13.15
2023-05-13T09:00:12.698Z,13.16
2023-05-13T09:03:15.344Z,13.04
2023-05-13T09:06:16.793Z,13.05
2023-05-13T09:09:18.591Z,13.01
2023-05-13T09:12:41.769Z,12.94
2023-05-13T09:15:44.323Z,13.08
2023-05-13T09:18:46.798Z,12.95
2023-05-13T09:21:48.433Z,12.99
2023-05-13T09:24:55.786Z,12.99
2023-05-13T09:28:01.145Z,13.08
2023-05-13T09:31:02.759Z,12.99
2023-05-13T09:34:04.138Z,13.13
2023-05-13T09:37:08.918Z,13.10
2023-05-13T09:40:12.615Z,13.16
2023-05-13T09:43:15.491Z,13.08
2023-05-13T09:46:16.954Z,13.01
2023-05-13T09:49:18.515Z,13.05
2023-05-13T09:52:22.019Z,12.99
2023-05-13T09:55:23.532Z,12.92
2023-05-13T09:58:28.367Z,13.10
2023-05-13T10:01:30.780Z,12.95
2023-05-13T10:04:32.578Z,12.90
2023-05-13T10:07:34.790Z,13.04
2023-05-13T10:10:37.023Z,13.11
2023-05-13T10:13:39.420Z,13.21
2023-05-13T10:16:41.633Z,13.22
2023-05-13T10:19:43.568Z,13.34
2023-05-13T10:22:45.345Z,13.16
2023-05-13T10:25:54.832Z,13.07
2023-05-13T10:28:57.967Z,13.02
2023-05-13T10:32:00.514Z,13.05
2023-05-13T10:35:10.517Z,13.18
2023-05-13T10:38:38.051Z,13.23
2023-05-13T10:41:48.266Z,13.27
2023-05-13T10:44:54.396Z,13.32
2023-05-13T10:47:56.533Z,13.38
2023-05-13T10:51:03.016Z,13.32
2023-05-13T10:54:22.074Z,13.39
2023-05-13T10:57:36.869Z,13.36
2023-05-13T11:00:43.599Z,13.30
2023-05-13T11:03:59.725Z,13.32
2023-05-13T11:07:16.545Z,13.23
2023-05-13T11:10:25.664Z,13.29
2023-05-13T11:13:45.269Z,13.30
2023-05-13T11:16:59.931Z,13.31
2023-05-13T11:20:01.586Z,13.25
2023-05-13T11:23:03.021Z,13.23
2023-05-13T11:26:16.862Z,13.28
2023-05-13T11:29:35.821Z,13.37
2023-05-13T11:32:59.903Z,13.37
2023-05-13T11:36:01.544Z,13.38
2023-05-13T11:39:22.447Z,13.47
2023-05-13T11:42:24.872Z,13.73
2023-05-13T11:45:27.671Z,13.93
2023-05-13T11:48:30.052Z,14.25
2023-05-13T11:51:34.068Z,14.39
2023-05-13T11:54:48.788Z,14.26
2023-05-13T11:57:50.333Z,14.14
2023-05-13T12:00:54.545Z,13.92
2023-05-13T12:04:01.436Z,13.71
2023-05-13T12:07:03.486Z,13.73
2023-05-13T12:10:07.055Z,13.62
2023-05-13T12:13:08.431Z,13.65
2023-05-13T12:16:10.462Z,13.63
2023-05-13T12:19:11.927Z,13.60
2023-05-13T12:22:13.548Z,13.52
2023-05-13T12:25:39.907Z,13.62
2023-05-13T12:28:41.417Z,13.43
2023-05-13T12:32:03.228Z,13.57
2023-05-13T12:35:14.136Z,13.56
2023-05-13T12:38:17.749Z,13.75
2023-05-13T12:41:19.110Z,14.00
2023-05-13T12:44:21.115Z,14.00
2023-05-13T12:47:23.140Z,13.96
2023-05-13T12:50:25.530Z,14.07
2023-05-13T12:53:27.244Z,14.00
2023-05-13T12:56:28.758Z,13.83
2023-05-13T12:59:31.193Z,13.86
2023-05-13T13:02:32.964Z,13.78
2023-05-13T13:05:34.482Z,13.71
2023-05-13T13:08:39.709Z,13.89
2023-05-13T13:11:41.071Z,13.94
2023-05-13T13:14:42.469Z,13.98
2023-05-13T13:17:43.929Z,14.04
2023-05-13T13:20:45.428Z,14.21
2023-05-13T13:23:46.814Z,14.29
2023-05-13T13:26:49.903Z,14.18
2023-05-13T13:29:51.298Z,14.30
2023-05-13T13:32:53.994Z,14.31
2023-05-13T13:35:55.533Z,14.25
2023-05-13T13:38:56.904Z,14.29
2023-05-13T13:41:58.287Z,14.36
2023-05-13T13:44:59.656Z,14.58
2023-05-13T13:48:01.424Z,15.02
2023-05-13T13:51:02.933Z,15.48
2023-05-13T13:54:05.356Z,16.01
2023-05-13T13:57:06.828Z,15.87
2023-05-13T14:00:08.871Z,15.69
2023-05-13T14:03:10.374Z,15.59
2023-05-13T14:06:11.919Z,15.58
2023-05-13T14:09:13.330Z,15.30
2023-05-13T14:12:14.710Z,14.98
2023-05-13T14:15:16.095Z,15.08
2023-05-13T14:18:17.487Z,15.06
2023-05-13T14:21:18.838Z,14.93
2023-05-13T14:24:20.225Z,14.97
2023-05-13T14:27:21.917Z,15.01
2023-05-13T14:30:23.748Z,15.03
2023-05-13T14:33:25.420Z,15.03
2023-05-13T14:36:26.982Z,14.99
2023-05-13T14:39:28.386Z,15.00
2023-05-13T14:42:29.802Z,15.09
2023-05-13T14:45:31.183Z,15.12
2023-05-13T14:48:32.521Z,15.03
2023-05-13T14:51:35.084Z,14.96
2023-05-13T14:54:37.790Z,15.00
2023-05-13T14:57:39.414Z,14.94
2023-05-13T15:00:41.578Z,14.94
2023-05-13T15:03:43.020Z,14.99
2023-05-13T15:06:44.362Z,15.06
2023-05-13T15:09:45.851Z,15.12
2023-05-13T15:12:47.192Z,15.13
2023-05-13T15:15:48.546Z,15.28
2023-05-13T15:18:50.377Z,15.29
2023-05-13T15:21:51.879Z,15.44
2023-05-13T15:24:53.273Z,15.66
2023-05-13T15:27:54.656Z,15.70
2023-05-13T15:30:56.248Z,15.63
2023-05-13T15:33:57.687Z,15.75
2023-05-13T15:36:59.010Z,15.82
2023-05-13T15:40:00.397Z,15.97
2023-05-13T15:43:01.775Z,16.14
2023-05-13T15:46:03.527Z,16.03
2023-05-13T15:49:04.994Z,15.98
2023-05-13T15:52:07.104Z,16.08
2023-05-13T15:55:08.710Z,16.06
2023-05-13T15:58:10.067Z,15.84
2023-05-13T16:01:11.511Z,15.63
2023-05-13T16:04:12.958Z,15.69
2023-05-13T16:07:14.343Z,15.56
2023-05-13T16:10:15.819Z,15.44
2023-05-13T16:13:17.169Z,15.27
2023-05-13T16:16:20.575Z,15.31
2023-05-13T16:19:22.107Z,15.23
2023-05-13T16:22:30.248Z,15.34
2023-05-13T16:25:34.633Z,15.37
2023-05-13T16:28:35.987Z,15.30
2023-05-13T16:31:37.375Z,15.35
2023-05-13T16:34:38.874Z,15.35
2023-05-13T16:37:40.328Z,15.45
2023-05-13T16:40:41.981Z,15.69
2023-05-13T16:43:43.361Z,15.85
2023-05-13T16:46:44.714Z,15.91
2023-05-13T16:49:49.810Z,15.73
2023-05-13T16:52:51.187Z,15.57
2023-05-13T16:55:52.550Z,15.35
2023-05-13T16:58:53.914Z,15.47
2023-05-13T17:01:55.378Z,15.48
2023-05-13T17:04:56.730Z,15.54
2023-05-13T17:07:58.075Z,15.54
2023-05-13T17:10:59.588Z,15.37
2023-05-13T17:14:00.947Z,15.43
2023-05-13T17:17:03.122Z,15.41
2023-05-13T17:20:05.410Z,15.29
2023-05-13T17:23:06.785Z,15.20
2023-05-13T17:26:08.613Z,15.40
2023-05-13T17:29:09.977Z,15.15
2023-05-13T17:32:11.656Z,15.26
2023-05-13T17:35:13.044Z,15.13
2023-05-13T17:38:14.411Z,14.79
2023-05-13T17:41:15.858Z,14.77
2023-05-13T17:44:17.262Z,14.65
2023-05-13T17:47:18.615Z,14.66
2023-05-13T17:50:20.044Z,14.57
2023-05-13T17:53:21.570Z,14.35
2023-05-13T17:56:22.920Z,14.37
2023-05-13T17:59:24.261Z,14.28
2023-05-13T18:02:25.824Z,14.24
2023-05-13T18:05:27.240Z,14.16
2023-05-13T18:08:28.614Z,14.03
2023-05-13T18:11:30.003Z,14.00
2023-05-13T18:14:32.352Z,13.98
2023-05-13T18:17:33.856Z,13.88
2023-05-13T18:20:35.359Z,13.91
2023-05-13T18:23:36.704Z,13.90
2023-05-13T18:26:38.071Z,13.85
2023-05-13T18:29:39.432Z,13.73
2023-05-13T18:32:40.826Z,13.71
2023-05-13T18:35:42.248Z,13.57
2023-05-13T18:38:46.081Z,13.57
2023-05-13T18:41:47.930Z,13.47
2023-05-13T18:44:49.301Z,13.39
2023-05-13T18:47:50.857Z,13.41
2023-05-13T18:50:53.003Z,13.36
2023-05-13T18:53:54.399Z,13.38
2023-05-13T18:56:56.218Z,13.27
2023-05-13T18:59:58.395Z,13.33
2023-05-13T19:02:59.906Z,13.19
2023-05-13T19:06:01.328Z,13.19
2023-05-13T19:09:02.702Z,13.06
2023-05-13T19:12:04.219Z,13.09
2023-05-13T19:15:05.974Z,13.14
2023-05-13T19:18:07.434Z,13.04
2023-05-13T19:21:08.828Z,12.99
2023-05-13T19:24:10.205Z,12.97
2023-05-13T19:27:11.740Z,12.96
2023-05-13T19:30:13.150Z,12.97
2023-05-13T19:33:14.570Z,12.82
2023-05-13T19:36:15.979Z,12.98
2023-05-13T19:39:17.377Z,12.89
2023-05-13T19:42:18.754Z,12.89
2023-05-13T19:45:20.969Z,12.74
2023-05-13T19:48:22.324Z,12.75
2023-05-13T19:51:23.688Z,12.80
2023-05-13T19:54:25.082Z,12.82
2023-05-13T19:57:29.816Z,12.78
2023-05-13T20:00:31.432Z,12.78
2023-05-13T20:03:32.941Z,12.75
2023-05-13T20:06:34.381Z,12.73
2023-05-13T20:09:35.758Z,12.70
2023-05-13T20:12:37.380Z,12.70
2023-05-13T20:15:38.737Z,12.68
2023-05-13T20:18:40.213Z,12.69
2023-05-13T20:21:41.652Z,12.68
2023-05-13T20:24:43.741Z,12.67
2023-05-13T20:27:45.097Z,12.64
2023-05-13T20:30:46.440Z,12.66
2023-05-13T20:33:47.778Z,12.64
2023-05-13T20:36:49.151Z,12.63
2023-05-13T20:39:50.692Z,12.63
2023-05-13T20:42:52.441Z,12.63
2023-05-13T20:45:53.884Z,12.61
2023-05-13T20:48:55.481Z,12.58
2023-05-13T20:52:02.551Z,12.55
2023-05-13T20:55:04.894Z,12.53
2023-05-13T20:58:06.272Z,12.55
2023-05-13T21:01:07.699Z,12.56
2023-05-13T21:04:09.895Z,12.58
2023-05-13T21:07:11.619Z,12.51
2023-05-13T21:10:12.966Z,12.50
2023-05-13T21:13:14.329Z,12.44
2023-05-13T21:16:15.849Z,12.36
2023-05-13T21:19:24.691Z,12.36
2023-05-13T21:22:26.050Z,12.25
2023-05-13T21:25:27.598Z,12.26
2023-05-13T21:28:28.975Z,12.23
2023-05-13T21:31:30.506Z,12.21
2023-05-13T21:34:31.877Z,12.19
2023-05-13T21:37:33.280Z,12.16
2023-05-13T21:40:34.735Z,12.10
2023-05-13T21:43:36.096Z,12.05
2023-05-13T21:46:37.482Z,11.96
2023-05-13T21:49:39.017Z,11.96
2023-05-13T21:52:40.440Z,11.91
2023-05-13T21:55:41.812Z,11.83
2023-05-13T21:58:44.427Z,11.79
2023-05-13T22:01:45.950Z,11.75
2023-05-13T22:04:47.310Z,11.72
2023-05-13T22:07:48.692Z,11.73
2023-05-13T22:10:50.126Z,11.61
2023-05-13T22:13:51.506Z,11.56
2023-05-13T22:17:07.777Z,11.58
2023-05-13T22:20:10.853Z,11.56
2023-05-13T22:23:12.358Z,11.56
2023-05-13T22:26:13.728Z,11.53
2023-05-13T22:29:15.091Z,11.51
2023-05-13T22:32:16.621Z,11.39
2023-05-13T22:35:18.165Z,11.35
2023-05-13T22:38:19.525Z,11.31
2023-05-13T22:41:23.644Z,11.21
2023-05-13T22:44:25.002Z,11.17
2023-05-13T22:47:26.467Z,11.13
2023-05-13T22:50:27.960Z,11.09
2023-05-13T22:53:29.406Z,11.04
2023-05-13T22:56:30.779Z,11.02
2023-05-13T22:59:32.128Z,11.05
2023-05-13T23:02:33.543Z,11.03
2023-05-13T23:05:34.955Z,10.99
2023-05-13T23:08:36.812Z,10.98
2023-05-13T23:11:38.276Z,10.99
2023-05-13T23:14:40.087Z,10.97
2023-05-13T23:17:41.937Z,10.81
2023-05-13T23:20:57.965Z,10.87
2023-05-13T23:23:59.345Z,10.91
2023-05-13T23:27:00.713Z,10.85
2023-05-13T23:30:02.092Z,10.79
2023-05-13T23:33:03.496Z,10.71
2023-05-13T23:36:05.252Z,10.67
2023-05-13T23:39:06.871Z,10.62
2023-05-13T23:42:08.247Z,10.62
2023-05-13T23:45:10.011Z,10.57
2023-05-13T23:48:11.479Z,10.58
2023-05-13T23:51:12.825Z,10.58
2023-05-13T23:54:14.225Z,10.52
2023-05-13T23:57:15.619Z,10.48
